Time;durP1;ratioP1;P1;durP2;ratioP2;P2;SDS_P1;SDS_P2;PMS_P1;PMS_P2;Temp;Humidity;BMP_temperature;BMP_pressure;BME280_temperature;BME280_humidity;BME280_pressure;Samples;Min_cycle;Max_cycle;Signal;HPM_P1;HPM_P2
2022/05/15 00:02:24;;;;;;;3.28;1.15;;;17.70;40.40;;;;;;2219000;57;20879;-89
2022/05/15 00:04:50;;;;;;;3.20;1.15;;;17.60;40.40;;;;;;2436543;57;21440;-89
2022/05/15 00:07:16;;;;;;;2.25;1.10;;;17.60;40.60;;;;;;2218577;57;20950;-88
2022/05/15 00:09:43;;;;;;;2.25;0.93;;;17.50;40.70;;;;;;2435139;56;20974;-88
2022/05/15 00:12:10;;;;;;;2.35;1.10;;;17.50;40.80;;;;;;2435258;57;20931;-88
2022/05/15 00:14:36;;;;;;;2.03;0.90;;;17.50;40.90;;;;;;2218624;57;20923;-88
2022/05/15 00:17:02;;;;;;;2.90;1.02;;;17.40;40.90;;;;;;2435696;57;20914;-88
2022/05/15 00:19:29;;;;;;;2.78;0.95;;;17.40;41.00;;;;;;2435550;57;21524;-88
2022/05/15 00:21:55;;;;;;;2.22;0.90;;;17.40;41.10;;;;;;2434824;56;20971;-88
2022/05/15 00:24:21;;;;;;;3.55;1.10;;;17.40;41.10;;;;;;2436241;57;21495;-88
2022/05/15 00:26:47;;;;;;;2.35;0.90;;;17.40;41.30;;;;;;2436789;57;20951;-88
2022/05/15 00:29:14;;;;;;;2.53;1.05;;;17.40;41.40;;;;;;2207931;57;21500;-88
2022/05/15 00:31:40;;;;;;;3.20;1.05;;;17.30;41.40;;;;;;2428161;57;21030;-89
2022/05/15 00:34:06;;;;;;;2.80;1.35;;;17.30;41.50;;;;;;2218026;57;20955;-90
2022/05/15 00:36:33;;;;;;;2.35;1.02;;;17.30;41.60;;;;;;2218822;57;20907;-89
2022/05/15 00:38:59;;;;;;;3.00;1.00;;;17.30;41.70;;;;;;2435978;57;21433;-88
2022/05/15 00:41:26;;;;;;;1.98;0.90;;;17.30;41.70;;;;;;2436228;56;20947;-89
2022/05/15 00:43:54;;;;;;;3.80;1.00;;;17.20;41.80;;;;;;2218886;57;20944;-89
2022/05/15 00:46:29;;;;;;;3.72;1.23;;;17.20;42.00;;;;;;2418748;57;21258;-89
2022/05/15 00:48:56;;;;;;;3.50;1.20;;;17.20;42.00;;;;;;2424736;57;20986;-88
2022/05/15 00:51:26;;;;;;;4.75;1.75;;;17.10;41.80;;;;;;2417475;57;21826;-90
2022/05/15 00:54:03;;;;;;;2.92;1.17;;;17.10;42.00;;;;;;2417997;57;21014;-89
2022/05/15 00:56:32;;;;;;;2.90;1.17;;;16.90;41.90;;;;;;2432863;57;20935;-87
2022/05/15 00:59:08;;;;;;;2.22;1.00;;;17.10;42.10;;;;;;2423089;57;21024;-88
2022/05/15 01:01:41;;;;;;;2.87;1.12;;;17.00;42.20;;;;;;2420198;56;21066;-89
2022/05/15 01:04:11;;;;;;;4.03;1.60;;;17.00;41.90;;;;;;2410963;57;21539;-88
2022/05/15 01:06:51;;;;;;;4.37;1.80;;;17.00;41.90;;;;;;2400567;57;21045;-90
2022/05/15 01:09:21;;;;;;;3.25;1.37;;;16.90;42.10;;;;;;2413595;57;20995;-90
2022/05/15 01:11:47;;;;;;;3.30;1.65;;;16.90;42.20;;;;;;2204668;57;21024;-89
2022/05/15 01:14:14;;;;;;;3.17;1.37;;;16.80;42.40;;;;;;2428861;57;20942;-89
2022/05/15 01:16:40;;;;;;;2.85;1.50;;;16.80;42.60;;;;;;2411159;57;21312;-89
2022/05/15 01:19:07;;;;;;;3.45;1.80;;;16.80;42.60;;;;;;2406387;57;20954;-89
2022/05/15 01:21:53;;;;;;;2.62;1.35;;;16.80;42.70;;;;;;2417597;56;20979;-88
2022/05/15 01:24:19;;;;;;;2.75;1.20;;;16.70;43.20;;;;;;2434777;57;21784;-89
2022/05/15 01:26:46;;;;;;;2.25;1.02;;;16.70;42.70;;;;;;2219132;57;20986;-89
2022/05/15 01:29:12;;;;;;;3.72;1.40;;;16.60;42.80;;;;;;2436817;57;20921;-89
2022/05/15 01:31:38;;;;;;;3.08;1.20;;;16.60;42.90;;;;;;2436578;56;20898;-88
2022/05/15 01:34:08;;;;;;;3.45;1.25;;;16.60;43.00;;;;;;2436537;57;20966;-87
2022/05/15 01:36:35;;;;;;;3.45;1.05;;;16.50;43.10;;;;;;2436590;57;21086;-89
2022/05/15 01:39:01;;;;;;;2.72;1.08;;;16.50;43.00;;;;;;2436096;57;20967;-89
2022/05/15 01:41:27;;;;;;;3.33;0.93;;;16.50;43.10;;;;;;2436185;56;21015;-88
2022/05/15 01:43:54;;;;;;;3.25;1.12;;;16.40;43.20;;;;;;2436682;57;21829;-86
2022/05/15 01:46:24;;;;;;;2.30;1.10;;;16.40;43.20;;;;;;2414750;57;20987;-88
2022/05/15 01:48:54;;;;;;;2.10;0.60;;;16.30;43.40;;;;;;2433605;57;20959;-88
2022/05/15 01:51:21;;;;;;;2.42;0.75;;;16.30;43.40;;;;;;2435968;56;20967;-89
2022/05/15 01:53:47;;;;;;;1.40;0.60;;;16.30;43.40;;;;;;2210951;57;22084;-88
2022/05/15 01:56:13;;;;;;;3.47;0.70;;;16.30;43.40;;;;;;2419457;57;20987;-89
2022/05/15 01:58:40;;;;;;;2.70;0.95;;;16.30;43.50;;;;;;2419407;57;21038;-87
2022/05/15 02:01:06;;;;;;;2.37;1.00;;;16.20;44.10;;;;;;2418905;56;21974;-90
2022/05/15 02:03:33;;;;;;;2.40;1.08;;;16.20;43.60;;;;;;2405056;57;20979;-89
2022/05/15 02:06:01;;;;;;;2.17;0.93;;;16.20;43.70;;;;;;2435851;57;21485;-88
2022/05/15 02:08:32;;;;;;;2.35;1.00;;;16.20;43.80;;;;;;2436465;57;20950;-87
2022/05/15 02:10:58;;;;;;;3.65;1.20;;;16.20;43.90;;;;;;2436301;56;20900;-88
2022/05/15 02:13:25;;;;;;;2.58;1.20;;;16.10;43.80;;;;;;2436161;57;20982;-89
2022/05/15 02:15:51;;;;;;;2.60;1.00;;;16.10;43.90;;;;;;2220081;57;20931;-89
2022/05/15 02:18:17;;;;;;;3.62;1.20;;;16.10;44.50;;;;;;2219031;57;20930;-88
2022/05/15 02:20:44;;;;;;;2.30;0.90;;;15.90;43.80;;;;;;2436991;55;20911;-89
2022/05/15 02:23:10;;;;;;;2.60;0.93;;;16.10;44.10;;;;;;2218601;57;21553;-88
2022/05/15 02:25:39;;;;;;;2.78;1.08;;;16.00;44.10;;;;;;2436980;57;20891;-88
2022/05/15 02:28:05;;;;;;;2.30;0.85;;;16.00;44.20;;;;;;2219277;57;21464;-89
2022/05/15 02:30:31;;;;;;;2.40;0.90;;;16.00;44.30;;;;;;2412477;57;21077;-89
2022/05/15 02:32:58;;;;;;;2.55;0.98;;;16.00;44.30;;;;;;2437122;57;20927;-88
2022/05/15 02:35:24;;;;;;;2.33;0.90;;;15.90;44.20;;;;;;2219073;57;20903;-88
2022/05/15 02:37:50;;;;;;;2.33;0.98;;;15.90;44.30;;;;;;2436559;57;20903;-89
2022/05/15 02:40:18;;;;;;;1.77;0.80;;;15.90;44.50;;;;;;2411746;57;21548;-88
2022/05/15 02:42:45;;;;;;;2.85;1.05;;;15.90;44.50;;;;;;2436454;57;20938;-88
2022/05/15 02:45:11;;;;;;;2.58;0.70;;;15.80;44.40;;;;;;2437050;57;20982;-86
2022/05/15 02:47:38;;;;;;;2.10;0.90;;;15.80;44.50;;;;;;2437275;57;20939;-87
2022/05/15 02:52:50;;;;;;;1.90;0.90;;;15.80;44.60;;;;;;2203853;57;21333;-88
2022/05/15 02:55:16;;;;;;;2.65;1.10;;;15.70;44.60;;;;;;2433488;57;21022;-87
2022/05/15 02:57:42;;;;;;;2.42;0.98;;;15.70;44.70;;;;;;2420743;57;21008;-85
2022/05/15 03:00:10;;;;;;;3.00;1.00;;;15.60;44.80;;;;;;2426398;56;21022;-87
2022/05/15 03:02:37;;;;;;;1.83;0.90;;;15.60;44.80;;;;;;2436316;55;20975;-88
2022/05/15 03:05:05;;;;;;;2.08;0.90;;;15.60;44.80;;;;;;2411044;57;21002;-87
2022/05/15 03:07:31;;;;;;;1.85;0.93;;;15.60;44.90;;;;;;2217607;57;21066;-86
2022/05/15 03:09:57;;;;;;;2.80;0.82;;;15.50;44.80;;;;;;2210118;57;22311;-87
2022/05/15 03:12:24;;;;;;;3.45;1.00;;;15.50;44.90;;;;;;2424851;57;20983;-87
2022/05/15 03:14:50;;;;;;;2.28;1.00;;;15.50;45.10;;;;;;2411974;57;21026;-87
2022/05/15 03:17:17;;;;;;;1.87;0.90;;;15.40;45.10;;;;;;2435567;55;20997;-88
2022/05/15 03:19:44;;;;;;;2.15;0.88;;;15.40;45.10;;;;;;2433899;56;21435;-86
2022/05/15 03:22:10;;;;;;;3.25;0.98;;;15.40;45.30;;;;;;2430609;57;20954;-88
2022/05/15 03:24:36;;;;;;;2.28;0.93;;;15.30;45.40;;;;;;2411083;57;21055;-87
2022/05/15 03:27:03;;;;;;;2.67;0.95;;;15.30;45.40;;;;;;2217556;57;20943;-88
2022/05/15 03:29:30;;;;;;;1.98;0.88;;;15.30;45.50;;;;;;2437124;57;20941;-87
2022/05/15 03:31:57;;;;;;;1.85;0.90;;;15.30;45.50;;;;;;2219329;57;20903;-85
2022/05/15 03:34:23;;;;;;;2.20;0.90;;;15.30;45.50;;;;;;2200239;57;20989;-87
2022/05/15 03:36:53;;;;;;;3.78;1.08;;;15.20;45.40;;;;;;2218727;57;21762;-87
2022/05/15 03:39:20;;;;;;;2.50;0.95;;;15.20;45.60;;;;;;2436179;57;20997;-86
2022/05/15 03:41:47;;;;;;;2.08;1.10;;;15.20;45.60;;;;;;2416401;56;20997;-87
2022/05/15 03:44:13;;;;;;;1.70;0.90;;;15.20;45.70;;;;;;2216081;57;20967;-87
2022/05/15 03:46:39;;;;;;;1.95;0.90;;;15.20;45.70;;;;;;2436359;57;20934;-87
2022/05/15 03:49:06;;;;;;;2.53;1.00;;;15.20;45.70;;;;;;2219014;57;20903;-87
2022/05/15 03:51:32;;;;;;;2.05;0.90;;;15.10;45.70;;;;;;2436658;56;20978;-87
2022/05/15 03:53:59;;;;;;;2.08;0.80;;;15.20;45.80;;;;;;2431746;57;21054;-86
2022/05/15 03:59:10;;;;;;;2.65;1.00;;;15.00;45.80;;;;;;2436161;57;20915;-87
2022/05/15 04:01:37;;;;;;;2.50;0.90;;;15.00;45.90;;;;;;2436845;56;20903;-88
2022/05/15 04:04:03;;;;;;;1.92;0.90;;;15.00;46.00;;;;;;2414676;57;21503;-88
2022/05/15 04:06:30;;;;;;;2.10;0.85;;;15.00;46.00;;;;;;2436234;55;20907;-87
2022/05/15 04:08:57;;;;;;;2.08;0.90;;;14.90;46.10;;;;;;2436442;57;20963;-85
2022/05/15 04:11:23;;;;;;;2.15;0.80;;;14.90;46.20;;;;;;2427782;56;21006;-87
2022/05/15 04:13:49;;;;;;;2.22;0.98;;;14.80;46.20;;;;;;2413981;57;21002;-86
2022/05/15 04:16:16;;;;;;;2.60;0.85;;;14.80;46.30;;;;;;2203921;57;21528;-87
2022/05/15 04:18:42;;;;;;;1.58;0.70;;;14.80;46.30;;;;;;2419941;57;20991;-86
2022/05/15 04:21:10;;;;;;;1.95;0.90;;;14.80;46.50;;;;;;2437994;55;20943;-88
2022/05/15 04:23:36;;;;;;;2.20;1.00;;;14.80;46.50;;;;;;2413145;55;20999;-90
2022/05/15 04:26:03;;;;;;;2.37;1.00;;;14.80;46.60;;;;;;2438618;55;20919;-88
2022/05/15 04:28:29;;;;;;;2.35;0.88;;;14.80;46.70;;;;;;2219972;57;20911;-89
2022/05/15 04:30:55;;;;;;;2.42;1.20;;;14.80;46.70;;;;;;2438487;56;20927;-89
2022/05/15 04:33:22;;;;;;;3.65;1.20;;;14.80;46.60;;;;;;2438632;55;20931;-88
2022/05/15 04:35:48;;;;;;;2.17;0.90;;;14.70;46.80;;;;;;2438623;55;20963;-89
2022/05/15 04:38:14;;;;;;;3.00;1.08;;;14.70;47.00;;;;;;2438350;55;20989;-88
2022/05/15 04:40:41;;;;;;;2.55;1.10;;;14.70;47.10;;;;;;2433431;55;21002;-89
2022/05/15 04:43:07;;;;;;;2.00;0.95;;;14.70;47.20;;;;;;2419379;55;20999;-86
2022/05/15 04:45:34;;;;;;;2.65;1.05;;;14.80;47.40;;;;;;2438447;55;20836;-88
2022/05/15 04:48:00;;;;;;;2.78;1.25;;;14.80;47.40;;;;;;2438118;55;20931;-89
2022/05/15 04:50:26;;;;;;;2.20;1.08;;;14.80;47.50;;;;;;2219909;57;20895;-89
2022/05/15 04:52:53;;;;;;;4.18;1.00;;;14.80;47.50;;;;;;2438616;55;20907;-88
2022/05/15 04:55:19;;;;;;;2.17;0.95;;;14.80;47.60;;;;;;2415297;55;21802;-89
2022/05/15 04:57:45;;;;;;;2.60;1.30;;;14.90;47.70;;;;;;2438637;57;20939;-88
2022/05/15 05:00:17;;;;;;;2.45;1.10;;;14.90;47.80;;;;;;2438653;55;20907;-89
2022/05/15 05:02:44;;;;;;;2.90;1.02;;;14.90;48.00;;;;;;2414708;55;20856;-88
2022/05/15 05:05:10;;;;;;;2.53;1.02;;;14.80;47.80;;;;;;2202951;57;20998;-88
2022/05/15 05:07:37;;;;;;;1.98;0.85;;;15.00;48.10;;;;;;2422610;55;21579;-87
2022/05/15 05:10:04;;;;;;;3.53;1.00;;;15.10;48.20;;;;;;2213055;57;21419;-88
2022/05/15 05:12:31;;;;;;;2.10;1.00;;;15.10;48.30;;;;;;2436747;55;21216;-89
2022/05/15 05:14:58;;;;;;;2.42;1.00;;;15.20;48.30;;;;;;2423097;57;21884;-88
2022/05/15 05:17:25;;;;;;;2.08;1.00;;;15.20;48.30;;;;;;2424092;57;20955;-86
2022/05/15 05:19:51;;;;;;;2.42;1.00;;;15.30;48.50;;;;;;2432881;56;21110;-85
2022/05/15 05:22:17;;;;;;;2.53;1.00;;;15.30;48.50;;;;;;2432938;57;21777;-87
2022/05/15 05:24:44;;;;;;;2.40;1.00;;;15.40;48.60;;;;;;2421896;57;21022;-87
2022/05/15 05:27:10;;;;;;;2.05;0.95;;;15.50;48.60;;;;;;2205220;57;21114;-85
2022/05/15 05:29:36;;;;;;;2.10;0.90;;;15.50;48.50;;;;;;2216419;57;20958;-87
2022/05/15 05:32:03;;;;;;;2.33;0.88;;;15.60;48.60;;;;;;2197033;57;21014;-87
2022/05/15 05:34:30;;;;;;;2.33;1.00;;;15.60;48.60;;;;;;2432588;57;20954;-85
2022/05/15 05:36:56;;;;;;;2.30;0.90;;;15.70;48.70;;;;;;2434235;57;20922;-86
2022/05/15 05:39:22;;;;;;;2.80;1.10;;;15.70;48.60;;;;;;2217463;57;20970;-87
2022/05/15 05:41:48;;;;;;;2.20;0.98;;;15.80;48.70;;;;;;2436002;56;20942;-87
2022/05/15 05:44:15;;;;;;;2.50;1.00;;;15.80;48.70;;;;;;2435882;57;21911;-86
2022/05/15 05:46:41;;;;;;;2.72;1.10;;;15.90;48.70;;;;;;2436374;57;21770;-87
2022/05/15 05:49:07;;;;;;;2.53;1.10;;;16.00;48.70;;;;;;2416101;57;21460;-88
2022/05/15 05:51:34;;;;;;;2.08;0.77;;;16.00;48.80;;;;;;2431507;56;21834;-86
2022/05/15 05:54:00;;;;;;;2.00;0.90;;;16.10;48.80;;;;;;2434423;57;21546;-91
2022/05/15 05:56:38;;;;;;;2.77;1.00;;;16.10;48.70;;;;;;2411225;57;21021;-87
2022/05/15 05:59:04;;;;;;;1.80;0.90;;;16.20;48.90;;;;;;2411015;56;21849;-89
2022/05/15 06:01:30;;;;;;;3.08;1.10;;;16.30;48.80;;;;;;2410313;55;21049;-88
2022/05/15 06:06:43;;;;;;;3.37;1.10;;;16.50;48.90;;;;;;2433496;55;20978;-89
2022/05/15 06:09:11;;;;;;;2.53;1.10;;;16.60;48.90;;;;;;2432127;55;20975;-91
2022/05/15 06:11:38;;;;;;;2.28;1.10;;;16.70;48.80;;;;;;2436431;55;21007;-90
2022/05/15 06:14:04;;;;;;;2.80;1.30;;;16.70;48.70;;;;;;2437088;55;21841;-90
2022/05/15 06:16:33;;;;;;;4.20;1.60;;;16.90;49.10;;;;;;2433272;55;21078;-90
2022/05/15 06:19:02;;;;;;;4.28;2.00;;;16.90;49.10;;;;;;2418556;55;20964;-90
2022/05/15 06:21:33;;;;;;;3.30;1.62;;;17.00;48.90;;;;;;2408259;55;21018;-90
2022/05/15 06:24:02;;;;;;;3.85;1.60;;;17.10;49.10;;;;;;2418116;55;21238;-91
2022/05/15 06:26:29;;;;;;;4.10;1.55;;;17.10;49.10;;;;;;2437242;55;20958;-90
2022/05/15 06:28:55;;;;;;;3.15;1.70;;;17.30;49.30;;;;;;2218317;57;20971;-88
2022/05/15 06:31:25;;;;;;;4.37;1.85;;;17.40;49.30;;;;;;2219020;57;21062;-91
2022/05/15 06:33:54;;;;;;;3.92;1.95;;;17.50;49.40;;;;;;2437932;55;21144;-91
2022/05/15 06:36:23;;;;;;;2.97;1.65;;;17.60;49.50;;;;;;2437395;55;20950;-89
2022/05/15 06:38:52;;;;;;;4.43;2.08;;;17.80;49.50;;;;;;2437548;55;21733;-92
2022/05/15 06:41:26;;;;;;;4.95;2.15;;;17.70;49.40;;;;;;2424469;55;21034;-90
2022/05/15 06:43:52;;;;;;;3.45;1.90;;;17.90;49.60;;;;;;2211578;57;20938;-90
2022/05/15 06:46:21;;;;;;;3.37;1.65;;;18.20;49.60;;;;;;2200109;57;20982;-88
2022/05/15 06:49:02;;;;;;;3.75;1.85;;;18.20;49.30;;;;;;2429894;55;21081;-92
2022/05/15 06:51:36;;;;;;;4.07;1.48;;;18.40;49.70;;;;;;2424859;55;20974;-91
2022/05/15 06:54:10;;;;;;;2.90;1.33;;;18.50;49.70;;;;;;2202976;58;21034;-89
2022/05/15 06:59:41;;;;;;;3.08;1.65;;;18.70;49.80;;;;;;2414305;55;21042;-90
2022/05/15 07:02:12;;;;;;;3.40;1.92;;;18.80;49.70;;;;;;2207652;57;22162;-90
2022/05/15 07:04:39;;;;;;;3.58;1.80;;;19.00;49.80;;;;;;2415031;55;21323;-90
2022/05/15 07:07:08;;;;;;;3.90;2.03;;;19.10;49.80;;;;;;2394624;55;21573;-92
2022/05/15 07:09:47;;;;;;;3.40;1.55;;;19.30;50.20;;;;;;2205520;55;21022;-90
2022/05/15 07:12:32;;;;;;;4.25;1.80;;;19.50;50.50;;;;;;2437072;55;21006;-91
2022/05/15 07:15:07;;;;;;;4.53;2.03;;;19.80;50.80;;;;;;2409013;55;21690;-92
2022/05/15 07:17:54;;;;;;;3.95;2.03;;;20.10;50.80;;;;;;2433561;55;20990;-92
2022/05/15 07:20:23;;;;;;;3.50;1.95;;;20.40;50.50;;;;;;2407029;55;21030;-93
2022/05/15 07:22:55;;;;;;;3.50;1.98;;;20.70;50.60;;;;;;2430492;55;21340;-91
2022/05/15 07:25:34;;;;;;;5.10;1.92;;;21.00;50.90;;;;;;2403095;55;20972;-91
2022/05/15 07:28:11;;;;;;;3.62;1.80;;;21.40;50.70;;;;;;2420219;55;22397;-93
2022/05/15 07:30:40;;;;;;;2.90;1.37;;;21.80;50.70;;;;;;2433922;55;20991;-92
2022/05/15 07:33:10;;;;;;;2.40;1.40;;;22.20;50.20;;;;;;2426641;55;21036;-92
2022/05/15 07:35:39;;;;;;;;;;;22.50;49.70;;;;;;2430870;55;21141;-91
2022/05/15 07:38:11;;;;;;;2.28;1.08;;;22.70;50.10;;;;;;2437698;55;20075;-91
2022/05/15 07:40:39;;;;;;;3.17;1.60;;;22.90;48.80;;;;;;2438649;55;21007;-89
2022/05/15 07:43:19;;;;;;;4.30;1.70;;;23.00;48.40;;;;;;2438478;55;20975;-90
2022/05/15 07:45:48;;;;;;;3.87;1.58;;;23.20;48.40;;;;;;2439921;55;21002;-92
2022/05/15 07:48:21;;;;;;;3.58;1.62;;;23.30;48.40;;;;;;2204170;57;21985;-91
2022/05/15 07:50:57;;;;;;;3.50;1.85;;;23.50;48.30;;;;;;2417916;55;21398;-89
2022/05/15 07:53:26;;;;;;;3.78;1.80;;;23.60;47.60;;;;;;2216350;57;20971;-90
2022/05/15 07:59:24;;;;;;;3.42;1.87;;;23.70;47.10;;;;;;2428605;55;21038;-90
2022/05/15 08:01:54;;;;;;;3.05;1.60;;;23.70;47.00;;;;;;2207639;57;21014;-90
2022/05/15 08:04:21;;;;;;;3.28;1.70;;;23.70;46.90;;;;;;2437055;57;20935;-92
2022/05/15 08:09:44;;;;;;;4.10;1.98;;;23.60;46.60;;;;;;2432000;55;20919;-91
2022/05/15 08:12:12;;;;;;;4.50;1.60;;;23.70;46.50;;;;;;2435314;57;20974;-89
2022/05/15 08:14:39;;;;;;;3.85;1.25;;;23.80;46.30;;;;;;2420005;57;21030;-92
2022/05/15 08:17:07;;;;;;;3.58;1.48;;;23.80;46.30;;;;;;2211614;57;20962;-91
2022/05/15 08:25:03;;;;;;;2.42;1.10;;;23.80;46.00;;;;;;2218665;57;21003;-88
2022/05/15 08:27:30;;;;;;;2.70;1.30;;;23.80;45.70;;;;;;2408025;57;21034;-89
2022/05/15 08:29:56;;;;;;;2.58;1.48;;;23.80;45.70;;;;;;2215101;57;20986;-88
2022/05/15 08:32:22;;;;;;;3.40;1.37;;;23.80;45.60;;;;;;2220278;57;20965;-91
2022/05/15 08:34:49;;;;;;;2.75;1.37;;;23.80;45.70;;;;;;2431170;57;22048;-87
2022/05/15 08:37:15;;;;;;;3.37;1.33;;;23.90;45.90;;;;;;2418837;57;20919;-89
2022/05/15 08:39:41;;;;;;;2.95;1.30;;;23.90;45.80;;;;;;2219254;57;20911;-91
2022/05/15 08:42:19;;;;;;;3.00;1.25;;;23.90;45.70;;;;;;2435838;56;20914;-89
2022/05/15 08:44:46;;;;;;;4.20;1.42;;;23.90;45.40;;;;;;2435942;57;20930;-90
2022/05/15 08:47:36;;;;;;;3.45;1.23;;;24.00;45.60;;;;;;2221025;57;20983;-89
2022/05/15 08:50:08;;;;;;;3.15;1.20;;;24.10;45.60;;;;;;2199991;57;21390;-88
2022/05/15 08:52:57;;;;;;;2.30;0.85;;;24.20;45.60;;;;;;2218870;57;20970;-88
2022/05/15 08:55:47;;;;;;;2.35;1.00;;;24.20;45.70;;;;;;2409374;55;21015;-90
2022/05/15 08:58:29;;;;;;;3.65;0.80;;;24.30;45.80;;;;;;2202458;57;21018;-92
2022/05/15 09:00:55;;;;;;;1.87;0.83;;;24.40;45.50;;;;;;2424497;56;20958;-90
2022/05/15 09:03:27;;;;;;;5.12;1.10;;;24.50;45.80;;;;;;2217125;57;21527;-88
2022/05/15 09:12:44;;;;;;;2.25;0.90;;;24.60;46.10;;;;;;2217611;57;21027;-88
2022/05/15 09:15:13;;;;;;;1.80;0.80;;;24.70;46.00;;;;;;2218603;57;20979;-87
2022/05/15 09:17:58;;;;;;;3.33;1.20;;;25.10;45.30;;;;;;2435804;57;21055;-86
2022/05/15 09:21:12;;;;;;;2.03;1.00;;;25.10;44.90;;;;;;2435878;56;21314;-86
2022/05/15 09:23:49;;;;;;;2.50;1.12;;;25.10;44.70;;;;;;2215289;57;21002;-86
2022/05/15 09:26:40;;;;;;;4.85;1.25;;;25.20;44.80;;;;;;2415757;57;20954;-88
2022/05/15 09:29:14;;;;;;;2.08;0.90;;;25.20;44.80;;;;;;2430710;57;20938;-87
2022/05/15 09:31:44;;;;;;;2.40;0.85;;;25.30;45.00;;;;;;2219077;57;20943;-88
2022/05/15 09:34:29;;;;;;;2.80;1.20;;;25.30;45.00;;;;;;2434258;57;21332;-88
2022/05/15 09:39:48;;;;;;;2.25;0.70;;;25.50;44.70;;;;;;2436151;56;21572;-88
2022/05/15 09:47:02;;;;;;;2.87;0.98;;;25.70;44.20;;;;;;2199938;57;21006;-86
2022/05/15 09:49:32;;;;;;;2.55;0.90;;;25.90;43.90;;;;;;2414373;57;21473;-89
2022/05/15 09:51:59;;;;;;;2.45;0.70;;;26.00;44.00;;;;;;2218312;57;20930;-88
2022/05/15 09:57:36;;;;;;;2.08;0.80;;;26.00;43.90;;;;;;2219022;57;20963;-90
2022/05/15 10:00:07;;;;;;;1.80;0.80;;;26.20;43.60;;;;;;2218943;57;21445;-89
2022/05/15 10:02:46;;;;;;;2.37;1.20;;;26.40;43.60;;;;;;2436446;57;21529;-86
2022/05/15 10:05:30;;;;;;;2.40;0.95;;;26.50;43.20;;;;;;2211581;57;21026;-86
2022/05/15 10:08:09;;;;;;;1.42;0.70;;;26.60;42.40;;;;;;2426824;57;21389;-87
2022/05/15 10:10:48;;;;;;;2.75;1.02;;;26.60;42.60;;;;;;2218637;57;20986;-89
2022/05/15 10:13:25;;;;;;;2.47;1.10;;;26.70;42.90;;;;;;2220982;57;20946;-87
2022/05/15 10:15:51;;;;;;;2.15;0.85;;;26.80;42.80;;;;;;2219134;57;20911;-87
2022/05/15 10:18:28;;;;;;;3.40;1.20;;;26.90;42.60;;;;;;2435932;57;20971;-86
2022/05/15 10:20:55;;;;;;;2.30;0.95;;;27.00;41.80;;;;;;2426623;56;21062;-86
2022/05/15 10:23:28;;;;;;;2.42;1.08;;;27.00;42.10;;;;;;2204198;57;20927;-88
2022/05/15 10:26:32;;;;;;;2.53;1.05;;;27.10;41.90;;;;;;2217952;57;20970;-87
2022/05/15 10:29:25;;;;;;;1.75;0.80;;;27.20;42.10;;;;;;2434878;57;20982;-87
2022/05/15 10:31:58;;;;;;;3.53;1.05;;;27.20;41.80;;;;;;2435543;56;21426;-89
2022/05/15 10:34:27;;;;;;;;;;;27.30;41.60;;;;;;2218815;57;21001;-86
2022/05/15 10:40:16;;;;;;;2.67;0.85;;;27.30;41.80;;;;;;2205570;57;20052;-86
2022/05/15 10:46:24;;;;;;;2.25;0.90;;;27.50;41.70;;;;;;2199606;58;20899;-87
2022/05/15 10:49:08;;;;;;;1.58;0.73;;;27.60;41.10;;;;;;2434303;57;20934;-86
2022/05/15 10:57:39;;;;;;;3.03;0.98;;;27.80;41.20;;;;;;2433242;57;21193;-87
2022/05/15 11:02:10;;;;;;;1.98;0.95;;;27.90;40.80;;;;;;2433660;56;20985;-86
2022/05/15 11:06:20;;;;;;;2.40;1.08;;;28.00;40.80;;;;;;2435449;57;22225;-87
2022/05/15 11:08:57;;;;;;;2.33;1.00;;;28.10;40.60;;;;;;2199897;58;20946;-86
2022/05/15 11:11:52;;;;;;;1.83;0.80;;;28.20;40.60;;;;;;2433652;56;20947;-87
2022/05/15 11:16:11;;;;;;;1.98;0.88;;;28.30;40.30;;;;;;2216631;57;21366;-86
2022/05/15 11:20:05;;;;;;;3.47;0.90;;;28.50;40.50;;;;;;2215683;57;20914;-86
2022/05/15 11:23:56;;;;;;;2.95;1.20;;;28.60;40.50;;;;;;2215317;57;20954;-86
2022/05/15 11:26:26;;;;;;;1.92;0.80;;;28.70;40.00;;;;;;2217330;57;20939;-86
2022/05/15 11:28:54;;;;;;;3.20;1.02;;;28.80;40.50;;;;;;2407783;57;22051;-86
2022/05/15 11:31:30;;;;;;;2.53;0.80;;;28.90;40.30;;;;;;2432107;56;20962;-86
2022/05/15 11:33:57;;;;;;;2.10;1.00;;;29.00;40.10;;;;;;2432980;57;21490;-86
2022/05/15 11:36:39;;;;;;;1.77;0.85;;;29.10;40.10;;;;;;2214705;57;20994;-87
2022/05/15 11:40:09;;;;;;;2.25;1.00;;;29.20;39.90;;;;;;2427019;56;21540;-87
2022/05/15 11:42:35;;;;;;;2.10;0.88;;;29.30;39.60;;;;;;2207318;57;20946;-86
2022/05/15 11:45:32;;;;;;;3.45;0.95;;;29.40;39.40;;;;;;2429878;57;21030;-87
2022/05/15 11:48:01;;;;;;;2.05;0.95;;;29.50;39.10;;;;;;2405680;57;21002;-86
2022/05/15 11:50:55;;;;;;;3.47;1.10;;;29.60;39.20;;;;;;2412056;57;21003;-87
2022/05/15 11:53:49;;;;;;;4.93;1.23;;;29.70;39.20;;;;;;2425202;57;20919;-86
2022/05/15 11:59:25;;;;;;;4.65;1.20;;;29.80;38.80;;;;;;2202917;57;21789;-87
2022/05/15 12:01:59;;;;;;;2.33;0.90;;;29.90;39.20;;;;;;2433112;56;20934;-85
2022/05/15 12:07:47;;;;;;;2.28;0.95;;;30.00;38.60;;;;;;2433199;57;20931;-86
2022/05/15 12:11:57;;;;;;;2.47;0.98;;;30.10;38.90;;;;;;2431293;56;20994;-86
2022/05/15 12:14:32;;;;;;;3.08;1.00;;;30.20;38.50;;;;;;2408612;57;20966;-86
2022/05/15 12:17:25;;;;;;;2.22;0.98;;;30.30;38.70;;;;;;2416531;57;20995;-86
2022/05/15 12:20:05;;;;;;;2.50;0.85;;;30.40;38.20;;;;;;2383624;57;2645423;-86
2022/05/15 12:22:38;;;;;;;2.40;1.00;;;30.40;38.00;;;;;;2200472;57;20983;-88
2022/05/15 12:25:14;;;;;;;3.78;1.50;;;30.50;37.90;;;;;;2408142;57;21019;-86
2022/05/15 12:30:53;;;;;;;2.28;0.95;;;30.60;37.40;;;;;;2213565;57;21073;-88
2022/05/15 12:33:30;;;;;;;2.50;1.33;;;30.70;37.30;;;;;;2416936;57;20935;-89
2022/05/15 12:35:56;;;;;;;2.40;0.93;;;30.70;37.60;;;;;;2432272;57;20938;-87
2022/05/15 12:38:23;;;;;;;2.53;0.90;;;30.80;37.30;;;;;;2432649;57;20963;-87
2022/05/15 12:41:12;;;;;;;2.75;1.00;;;30.80;37.20;;;;;;2408475;57;21024;-87
2022/05/15 12:43:49;;;;;;;1.90;0.93;;;30.90;36.70;;;;;;2422610;57;21038;-86
2022/05/15 12:46:32;;;;;;;3.83;0.98;;;31.00;36.60;;;;;;2204506;57;21034;-88
2022/05/15 12:48:58;;;;;;;2.30;1.30;;;31.00;36.70;;;;;;2204194;57;21011;-86
2022/05/15 12:51:33;;;;;;;2.80;0.90;;;31.10;36.80;;;;;;2211760;57;21018;-88
2022/05/15 12:54:00;;;;;;;3.15;1.08;;;31.10;36.70;;;;;;2416242;57;21672;-86
2022/05/15 12:56:35;;;;;;;2.53;1.10;;;31.20;37.00;;;;;;2197709;57;20979;-87
2022/05/15 12:59:17;;;;;;;2.72;1.05;;;31.30;36.70;;;;;;2209886;57;21018;-86
2022/05/15 13:01:45;;;;;;;2.60;0.88;;;31.30;36.20;;;;;;2421283;57;21374;-87
2022/05/15 13:04:16;;;;;;;2.35;0.98;;;31.40;36.50;;;;;;2410437;56;20998;-87
2022/05/15 13:06:49;;;;;;;1.85;0.77;;;31.50;36.20;;;;;;2398250;57;21085;-88
2022/05/15 13:09:20;;;;;;;1.83;0.88;;;31.60;35.80;;;;;;2207018;57;20943;-90
2022/05/15 13:11:50;;;;;;;2.67;1.20;;;31.60;35.60;;;;;;2428687;56;20906;-88
2022/05/15 13:14:21;;;;;;;2.40;1.00;;;31.70;35.70;;;;;;2409354;57;22171;-87
2022/05/15 13:16:49;;;;;;;2.33;1.10;;;31.70;35.50;;;;;;2407758;57;20910;-87
2022/05/15 13:19:19;;;;;;;2.53;0.95;;;31.80;35.40;;;;;;2409588;57;21385;-87
2022/05/15 13:21:47;;;;;;;2.62;1.00;;;31.90;35.40;;;;;;2217354;57;20994;-89
2022/05/15 13:24:14;;;;;;;2.42;1.00;;;32.00;35.60;;;;;;2217106;57;21578;-88
2022/05/15 13:26:43;;;;;;;1.80;0.90;;;32.00;35.60;;;;;;2426061;57;21042;-88
2022/05/15 13:29:10;;;;;;;2.33;0.80;;;32.10;35.40;;;;;;2419920;57;20991;-87
2022/05/15 13:31:37;;;;;;;2.53;0.90;;;32.20;35.30;;;;;;2433278;56;20951;-88
2022/05/15 13:34:04;;;;;;;2.10;1.00;;;32.30;35.00;;;;;;2433663;57;21022;-87
2022/05/15 13:36:30;;;;;;;2.28;0.90;;;32.40;34.70;;;;;;2433414;57;20935;-86
2022/05/15 13:44:34;;;;;;;2.28;0.95;;;32.60;34.00;;;;;;2433711;57;21390;-87
2022/05/15 13:47:08;;;;;;;3.28;0.90;;;32.70;34.10;;;;;;2217071;57;21011;-88
2022/05/15 13:49:44;;;;;;;1.90;0.80;;;32.80;34.10;;;;;;2433932;57;21030;-86
2022/05/15 13:52:33;;;;;;;2.92;1.30;;;32.80;33.70;;;;;;2216366;57;21814;-86
2022/05/15 13:55:07;;;;;;;2.42;0.88;;;32.90;33.00;;;;;;2434596;57;20903;-89
2022/05/15 13:57:33;;;;;;;2.70;1.00;;;32.90;33.00;;;;;;2217632;57;20934;-87
2022/05/15 14:00:03;;;;;;;2.62;0.95;;;33.00;33.20;;;;;;2217573;57;21050;-88
2022/05/15 14:02:31;;;;;;;2.00;0.90;;;33.00;33.10;;;;;;2415043;57;20994;-87
2022/05/15 14:05:18;;;;;;;1.85;0.80;;;33.00;33.00;;;;;;2420613;57;20953;-87
2022/05/15 14:07:45;;;;;;;1.80;0.70;;;33.10;32.50;;;;;;2207438;57;20983;-87
2022/05/15 14:10:20;;;;;;;1.35;0.70;;;33.20;32.80;;;;;;2206312;57;21010;-89
2022/05/15 14:13:00;;;;;;;2.22;1.10;;;33.20;32.40;;;;;;2434063;57;21030;-87
2022/05/15 14:15:46;;;;;;;2.20;0.90;;;33.30;32.40;;;;;;2430007;57;21102;-88
2022/05/15 14:18:34;;;;;;;2.30;0.90;;;33.30;32.30;;;;;;2418087;57;20986;-88
2022/05/15 14:21:26;;;;;;;2.20;0.80;;;33.40;31.70;;;;;;2408191;57;20931;-87
2022/05/15 14:23:52;;;;;;;;;;;33.50;31.90;;;;;;2437162;57;21903;-88
2022/05/15 14:26:19;;;;;;;2.28;0.70;;;33.50;32.60;;;;;;2218373;57;20105;-87